createdAt,value
2018-09-04T00:01:51.355Z,23.20
2018-09-04T00:04:21.209Z,23.30
2018-09-04T00:06:50.837Z,23.30
2018-09-04T00:09:20.750Z,23.40
2018-09-04T00:11:50.602Z,23.40
2018-09-04T00:14:20.849Z,23.40
2018-09-04T00:16:50.770Z,23.40
2018-09-04T00:19:21.365Z,23.40
2018-09-04T00:21:51.247Z,23.40
2018-09-04T00:24:20.764Z,23.40
2018-09-04T00:26:51.268Z,23.30
2018-09-04T00:29:21.085Z,23.10
2018-09-04T00:31:50.723Z,23.10
2018-09-04T00:34:20.640Z,22.90
2018-09-04T00:36:50.747Z,23.10
2018-09-04T00:39:21.084Z,23.10
2018-09-04T00:41:50.739Z,23.20
2018-09-04T00:44:20.326Z,23.20
2018-09-04T00:46:50.263Z,23.30
2018-09-04T00:49:19.884Z,23.20
2018-09-04T00:51:49.424Z,23.20
2018-09-04T00:54:19.030Z,23.20
2018-09-04T00:56:48.768Z,23.10
2018-09-04T00:59:18.001Z,23.00
2018-09-04T01:01:47.148Z,22.80
2018-09-04T01:04:16.187Z,22.80
2018-09-04T01:06:45.233Z,22.90
2018-09-04T01:09:21.102Z,22.90
2018-09-04T01:11:50.559Z,23.00
2018-09-04T01:14:19.964Z,23.10
2018-09-04T01:16:49.549Z,23.00
2018-09-04T01:19:19.021Z,23.10
2018-09-04T01:21:48.616Z,23.00
2018-09-04T01:24:17.963Z,22.90
2018-09-04T01:26:47.000Z,22.80
2018-09-04T01:29:16.098Z,22.70
2018-09-04T01:31:45.167Z,22.40
2018-09-04T01:34:14.133Z,22.60
2018-09-04T01:36:43.285Z,22.80
2018-09-04T01:39:12.346Z,22.90
2018-09-04T01:41:41.600Z,22.90
2018-09-04T01:44:10.556Z,22.90
2018-09-04T01:46:39.970Z,22.90
2018-09-04T01:49:08.944Z,22.80
2018-09-04T01:51:38.027Z,22.90
2018-09-04T01:54:07.008Z,22.90
2018-09-04T01:56:36.042Z,22.90
2018-09-04T01:59:05.205Z,23.00
2018-09-04T02:01:34.881Z,22.80
2018-09-04T02:04:03.948Z,22.90
2018-09-04T02:06:32.983Z,22.80
2018-09-04T02:09:02.052Z,22.70
2018-09-04T02:11:31.102Z,22.80
2018-09-04T02:14:00.060Z,22.60
2018-09-04T02:16:29.290Z,22.70
2018-09-04T02:18:58.484Z,22.70
2018-09-04T02:21:27.756Z,22.80
2018-09-04T02:23:57.288Z,22.70
2018-09-04T02:26:26.509Z,22.80
2018-09-04T02:28:55.719Z,22.80
2018-09-04T02:31:25.360Z,22.90
2018-09-04T02:33:54.842Z,22.90
2018-09-04T02:36:24.404Z,22.90
2018-09-04T02:38:54.306Z,22.80
2018-09-04T02:41:23.980Z,22.80
2018-09-04T02:43:53.461Z,22.80
2018-09-04T02:46:23.196Z,22.90
2018-09-04T02:48:53.109Z,23.00
2018-09-04T02:51:23.087Z,23.00
2018-09-04T02:53:53.473Z,23.00
2018-09-04T02:56:23.325Z,23.00
2018-09-04T02:58:52.897Z,23.10
2018-09-04T03:01:22.504Z,23.00
2018-09-04T03:03:52.401Z,23.10
2018-09-04T03:06:22.035Z,23.00
2018-09-04T03:08:52.289Z,22.80
2018-09-04T03:11:21.902Z,22.30
2018-09-04T03:13:51.589Z,22.10
2018-09-04T03:16:21.994Z,21.90
2018-09-04T03:18:52.137Z,22.70
2018-09-04T03:21:21.700Z,22.30
2018-09-04T03:23:51.590Z,22.70
2018-09-04T03:26:21.213Z,22.80
2018-09-04T03:28:51.109Z,22.80
2018-09-04T03:31:21.076Z,22.90
2018-09-04T03:33:50.749Z,22.80
2018-09-04T03:36:20.849Z,23.00
2018-09-04T03:38:50.464Z,23.00
2018-09-04T03:41:20.384Z,23.10
2018-09-04T03:43:49.748Z,23.00
2018-09-04T03:46:19.301Z,23.00
2018-09-04T03:48:49.144Z,23.00
2018-09-04T03:51:18.685Z,22.90
2018-09-04T03:53:47.984Z,23.00
2018-09-04T03:56:17.702Z,23.00
2018-09-04T03:58:47.371Z,23.00
2018-09-04T04:01:16.664Z,22.90
2018-09-04T04:03:45.830Z,22.40
2018-09-04T04:06:15.284Z,21.80
2018-09-04T04:08:44.492Z,22.30
2018-09-04T04:11:13.701Z,22.40
2018-09-04T04:13:42.876Z,22.30
2018-09-04T04:16:12.229Z,21.50
2018-09-04T04:18:41.545Z,22.20
2018-09-04T04:21:10.765Z,22.40
2018-09-04T04:23:39.812Z,22.60
2018-09-04T04:26:09.052Z,22.70
2018-09-04T04:28:38.433Z,22.60
2018-09-04T04:31:07.484Z,22.70
2018-09-04T04:33:36.651Z,22.70
2018-09-04T04:36:06.085Z,22.60
2018-09-04T04:38:35.422Z,22.60
2018-09-04T04:41:04.696Z,22.30
2018-09-04T04:43:33.840Z,22.40
2018-09-04T04:46:03.264Z,22.30
2018-09-04T04:48:32.474Z,22.30
2018-09-04T04:51:01.743Z,22.40
2018-09-04T04:53:30.996Z,22.40
2018-09-04T04:56:00.308Z,22.50
2018-09-04T04:58:29.528Z,22.50
2018-09-04T05:00:59.023Z,22.40
2018-09-04T05:03:28.253Z,22.40
2018-09-04T05:05:57.531Z,22.40
2018-09-04T05:08:27.082Z,22.50
2018-09-04T05:10:56.612Z,22.50
2018-09-04T05:13:26.073Z,22.50
2018-09-04T05:15:55.698Z,22.00
2018-09-04T05:18:25.181Z,22.30
2018-09-04T05:20:54.739Z,22.40
2018-09-04T05:23:23.985Z,22.50
2018-09-04T05:25:53.321Z,22.50
2018-09-04T05:28:22.626Z,22.60
2018-09-04T05:30:52.016Z,22.50
2018-09-04T05:33:24.496Z,22.10
2018-09-04T05:35:56.143Z,22.80
2018-09-04T05:38:25.915Z,22.80
2018-09-04T05:40:55.656Z,22.80
2018-09-04T05:43:29.456Z,23.50
2018-09-04T05:46:00.699Z,23.80
2018-09-04T05:48:29.977Z,24.10
2018-09-04T05:50:59.184Z,24.20
2018-09-04T05:53:28.448Z,24.50
2018-09-04T05:55:57.746Z,24.50
2018-09-04T05:58:27.416Z,24.50
2018-09-04T06:00:59.469Z,22.80
2018-09-04T06:03:28.953Z,23.40
2018-09-04T06:05:58.564Z,23.90
2018-09-04T06:08:28.048Z,22.10
2018-09-04T06:10:57.452Z,23.60
2018-09-04T06:13:26.997Z,23.90
2018-09-04T06:15:56.556Z,24.60
2018-09-04T06:18:26.148Z,25.40
2018-09-04T06:20:55.838Z,25.80
2018-09-04T06:23:25.938Z,26.10
2018-09-04T06:25:55.968Z,26.10
2018-09-04T06:28:25.673Z,24.50
2018-09-04T06:30:55.384Z,24.40
2018-09-04T06:33:25.037Z,25.60
2018-09-04T06:35:54.528Z,26.60
2018-09-04T06:38:24.165Z,27.00
2018-09-04T06:40:54.145Z,26.70
2018-09-04T06:43:24.197Z,27.60
2018-09-04T06:45:54.035Z,28.00
2018-09-04T06:48:23.982Z,28.10
2018-09-04T06:50:54.017Z,26.70
2018-09-04T06:53:24.540Z,25.50
2018-09-04T06:55:54.413Z,27.00
2018-09-04T06:58:24.172Z,27.80
2018-09-04T07:00:54.330Z,28.10
2018-09-04T07:03:24.799Z,28.50
2018-09-04T07:05:54.691Z,28.80
2018-09-04T07:08:24.147Z,28.80
2018-09-04T07:10:53.692Z,27.90
2018-09-04T07:13:24.458Z,28.00
2018-09-04T07:15:54.201Z,28.40
2018-09-04T07:18:23.865Z,28.90
2018-09-04T07:20:53.409Z,28.10
2018-09-04T07:23:23.430Z,26.00
2018-09-04T07:25:53.359Z,27.50
2018-09-04T07:28:23.436Z,28.60
2018-09-04T07:30:53.307Z,28.20
2018-09-04T07:33:23.739Z,27.60
2018-09-04T07:35:53.191Z,27.80
2018-09-04T07:38:23.600Z,28.20
2018-09-04T07:40:53.435Z,28.00
2018-09-04T07:43:22.897Z,26.90
2018-09-04T07:45:52.832Z,27.00
2018-09-04T07:48:22.588Z,28.30
2018-09-04T07:50:52.928Z,28.10
2018-09-04T07:53:22.645Z,29.20
2018-09-04T07:55:52.593Z,29.20
2018-09-04T07:58:22.582Z,30.00
2018-09-04T08:00:52.428Z,29.80
2018-09-04T08:03:22.725Z,29.40
2018-09-04T08:05:53.220Z,29.50
2018-09-04T08:08:22.509Z,28.80
2018-09-04T08:10:52.407Z,27.20
2018-09-04T08:13:22.380Z,26.20
2018-09-04T08:15:52.536Z,27.30
2018-09-04T08:18:22.608Z,28.30
2018-09-04T08:20:51.978Z,28.30
2018-09-04T08:23:22.032Z,29.20
2018-09-04T08:25:51.932Z,29.40
2018-09-04T08:28:21.758Z,29.20
2018-09-04T08:30:52.201Z,29.40
2018-09-04T08:33:22.263Z,29.70
2018-09-04T08:35:53.243Z,29.40
2018-09-04T08:38:23.097Z,29.70
2018-09-04T08:40:53.488Z,28.70
2018-09-04T08:43:23.447Z,28.80
2018-09-04T08:45:53.014Z,29.30
2018-09-04T08:48:23.042Z,29.70
2018-09-04T08:50:54.126Z,29.70
2018-09-04T08:53:23.841Z,29.10
2018-09-04T08:55:54.140Z,28.20
2018-09-04T08:58:23.960Z,28.70
2018-09-04T09:00:53.405Z,29.90
2018-09-04T09:03:23.562Z,30.10
2018-09-04T09:05:52.836Z,29.20
2018-09-04T09:08:22.144Z,28.10
2018-09-04T09:10:52.432Z,27.50
2018-09-04T09:13:21.835Z,26.80
2018-09-04T09:15:52.613Z,27.50
2018-09-04T09:18:22.764Z,28.80
2018-09-04T09:20:52.547Z,28.60
2018-09-04T09:23:22.105Z,30.10
2018-09-04T09:25:52.481Z,29.70
2018-09-04T09:28:22.357Z,29.20
2018-09-04T09:30:51.643Z,29.90
2018-09-04T09:33:20.943Z,28.70
2018-09-04T09:35:50.137Z,28.10
2018-09-04T09:38:19.802Z,28.00
2018-09-04T09:40:49.134Z,27.50
2018-09-04T09:43:18.367Z,26.80
2018-09-04T09:45:47.889Z,27.10
2018-09-04T09:48:16.868Z,26.70
2018-09-04T09:50:45.959Z,26.60
2018-09-04T09:53:15.172Z,26.70
2018-09-04T09:55:44.261Z,27.50
2018-09-04T09:58:13.512Z,28.20
2018-09-04T10:00:48.302Z,29.80
2018-09-04T10:03:22.786Z,29.40
2018-09-04T10:05:52.544Z,29.70
2018-09-04T10:08:22.097Z,30.70
2018-09-04T10:10:51.755Z,31.40
2018-09-04T10:13:22.343Z,30.90
2018-09-04T10:15:51.959Z,30.20
2018-09-04T10:18:22.313Z,30.20
2018-09-04T10:20:52.842Z,29.00
2018-09-04T10:23:22.915Z,27.80
2018-09-04T10:25:52.929Z,29.10
2018-09-04T10:28:23.451Z,29.80
2018-09-04T10:30:53.155Z,28.00
2018-09-04T10:33:23.267Z,27.30
2018-09-04T10:35:53.331Z,26.90
2018-09-04T10:38:25.124Z,26.60
2018-09-04T10:41:00.253Z,25.30
2018-09-04T10:43:30.132Z,26.30
2018-09-04T10:46:15.345Z,25.90
2018-09-04T10:48:44.423Z,25.90
2018-09-04T10:51:13.764Z,27.30
2018-09-04T10:53:42.869Z,26.70
2018-09-04T10:56:11.992Z,25.20
2018-09-04T10:58:41.180Z,25.30
2018-09-04T11:01:10.213Z,26.60
2018-09-04T11:03:39.351Z,26.20
2018-09-04T11:06:08.824Z,27.90
2018-09-04T11:08:37.817Z,28.50
2018-09-04T11:11:07.000Z,29.00
2018-09-04T11:13:36.256Z,29.20
2018-09-04T11:16:05.835Z,29.70
2018-09-04T11:18:34.356Z,29.20
2018-09-04T11:21:03.809Z,27.20
2018-09-04T11:23:33.987Z,27.80
2018-09-04T11:26:03.057Z,28.10
2018-09-04T11:28:33.028Z,27.50
2018-09-04T11:31:02.023Z,27.70
2018-09-04T11:33:31.744Z,28.30
2018-09-04T11:36:01.871Z,28.90
2018-09-04T11:38:30.985Z,28.90
2018-09-04T11:41:01.203Z,28.70
2018-09-04T11:43:31.419Z,28.20
2018-09-04T11:46:00.631Z,28.40
2018-09-04T11:48:30.343Z,28.40
2018-09-04T11:50:59.472Z,28.70
2018-09-04T11:53:29.222Z,28.80
2018-09-04T11:55:59.202Z,28.50
2018-09-04T11:58:28.324Z,27.50
2018-09-04T12:00:58.304Z,27.70
2018-09-04T12:03:28.857Z,28.60
2018-09-04T12:05:58.235Z,28.80
2018-09-04T12:08:28.621Z,27.20
2018-09-04T12:10:59.163Z,28.10
2018-09-04T12:13:30.565Z,27.70
2018-09-04T12:16:00.404Z,26.40
2018-09-04T12:18:29.976Z,25.90
2018-09-04T12:21:00.755Z,26.00
2018-09-04T12:23:30.565Z,27.10
2018-09-04T12:26:01.671Z,27.10
2018-09-04T12:28:31.446Z,27.00
2018-09-04T12:31:01.457Z,27.40
2018-09-04T12:33:31.889Z,25.90
2018-09-04T12:36:01.608Z,25.40
2018-09-04T12:38:33.748Z,26.40
2018-09-04T12:41:06.130Z,26.50
2018-09-04T12:43:37.568Z,25.90
2018-09-04T12:46:07.120Z,25.70
2018-09-04T12:48:36.195Z,26.20
2018-09-04T12:51:05.762Z,26.10
2018-09-04T12:53:35.185Z,25.80
2018-09-04T12:56:04.872Z,26.00
2018-09-04T12:58:33.829Z,26.90
2018-09-04T13:01:03.981Z,27.70
2018-09-04T13:03:33.004Z,28.40
2018-09-04T13:06:02.021Z,28.20
2018-09-04T13:08:33.281Z,28.30
2018-09-04T13:11:03.349Z,27.60
2018-09-04T13:13:32.967Z,27.70
2018-09-04T13:16:02.804Z,28.50
2018-09-04T13:18:32.965Z,28.70
2018-09-04T13:21:04.512Z,29.10
2018-09-04T13:23:35.344Z,28.90
2018-09-04T13:26:04.832Z,28.00
2018-09-04T13:28:35.614Z,27.00
2018-09-04T13:31:04.715Z,27.00
2018-09-04T13:33:33.875Z,27.20
2018-09-04T13:36:03.156Z,26.20
2018-09-04T13:38:32.780Z,26.10
2018-09-04T13:41:07.240Z,26.20
2018-09-04T13:43:37.140Z,26.70
2018-09-04T13:46:06.240Z,27.50
2018-09-04T13:48:35.988Z,27.40
2018-09-04T13:51:04.972Z,27.60
2018-09-04T13:53:34.463Z,27.90
2018-09-04T13:56:03.659Z,28.20
2018-09-04T13:58:32.756Z,28.10
2018-09-04T14:01:02.620Z,28.40
2018-09-04T14:03:32.036Z,28.70
2018-09-04T14:06:01.052Z,28.70
2018-09-04T14:08:30.861Z,28.10
2018-09-04T14:11:00.481Z,27.40
2018-09-04T14:13:30.177Z,27.40
2018-09-04T14:16:02.340Z,27.50
2018-09-04T14:18:32.556Z,28.70
2018-09-04T14:21:01.967Z,28.90
2018-09-04T14:23:31.540Z,29.00
2018-09-04T14:26:01.707Z,28.60
2018-09-04T14:28:45.677Z,28.10
2018-09-04T14:31:00.959Z,27.40
2018-09-04T14:33:29.940Z,26.70
2018-09-04T14:35:59.002Z,27.10
2018-09-04T14:38:29.117Z,27.40
2018-09-04T14:40:58.224Z,28.10
2018-09-04T14:43:27.636Z,28.60
2018-09-04T14:45:57.305Z,27.20
2018-09-04T14:48:27.609Z,28.10
2018-09-04T14:50:57.566Z,28.00
2018-09-04T14:53:26.929Z,28.20
2018-09-04T14:55:57.052Z,28.00
2018-09-04T14:58:26.730Z,27.10
2018-09-04T15:00:56.530Z,27.00
2018-09-04T15:03:26.367Z,26.90
2018-09-04T15:05:56.068Z,27.30
2018-09-04T15:08:25.452Z,26.40
2018-09-04T15:10:54.844Z,27.20
2018-09-04T15:13:24.157Z,28.00
2018-09-04T15:15:53.332Z,27.70
2018-09-04T15:18:22.936Z,28.10
2018-09-04T15:20:53.193Z,28.40
2018-09-04T15:23:23.016Z,28.50
2018-09-04T15:25:53.143Z,28.30
2018-09-04T15:28:23.136Z,28.10
2018-09-04T15:30:52.487Z,28.80
2018-09-04T15:33:22.237Z,28.90
2018-09-04T15:35:52.437Z,28.60
2018-09-04T15:38:22.211Z,28.60
2018-09-04T15:40:52.552Z,28.70
2018-09-04T15:43:22.747Z,28.00
2018-09-04T15:45:52.399Z,27.30
2018-09-04T15:48:22.193Z,22.40
2018-09-04T15:50:52.379Z,21.50
2018-09-04T15:53:22.788Z,21.10
2018-09-04T15:55:52.500Z,21.00
2018-09-04T15:58:22.468Z,21.30
2018-09-04T16:00:52.340Z,21.20
2018-09-04T16:03:23.430Z,21.30
2018-09-04T16:05:54.308Z,21.40
2018-09-04T16:08:24.609Z,21.60
2018-09-04T16:10:54.744Z,20.80
2018-09-04T16:13:25.456Z,22.10
2018-09-04T16:15:55.641Z,21.60
2018-09-04T16:18:25.646Z,21.70
2018-09-04T16:20:56.218Z,22.10
2018-09-04T16:23:26.163Z,21.70
2018-09-04T16:25:55.839Z,21.90
2018-09-04T16:28:26.060Z,22.10
2018-09-04T16:30:56.065Z,22.10
2018-09-04T16:33:26.214Z,22.70
2018-09-04T16:35:56.250Z,23.90
2018-09-04T16:38:26.215Z,24.50
2018-09-04T16:40:56.628Z,23.00
2018-09-04T16:43:26.144Z,23.00
2018-09-04T16:45:56.273Z,23.60
2018-09-04T16:48:30.865Z,25.20
2018-09-04T16:51:02.735Z,26.00
2018-09-04T16:53:33.176Z,26.20
2018-09-04T16:56:03.229Z,26.20
2018-09-04T16:58:33.535Z,26.10
2018-09-04T17:01:03.000Z,26.20
2018-09-04T17:03:32.531Z,26.20
2018-09-04T17:06:02.227Z,26.20
2018-09-04T17:08:31.915Z,26.00
2018-09-04T17:11:02.308Z,26.00
2018-09-04T17:13:32.634Z,24.90
2018-09-04T17:16:02.475Z,25.20
2018-09-04T17:18:32.632Z,24.90
2018-09-04T17:21:01.837Z,25.10
2018-09-04T17:23:31.604Z,24.20
2018-09-04T17:26:01.112Z,24.60
2018-09-04T17:28:30.632Z,23.50
2018-09-04T17:31:00.141Z,23.80
2018-09-04T17:33:30.291Z,24.50
2018-09-04T17:36:00.138Z,23.80
2018-09-04T17:38:30.383Z,24.60
2018-09-04T17:41:00.599Z,25.30
2018-09-04T17:44:02.607Z,25.50
2018-09-04T17:46:32.421Z,24.70
2018-09-04T17:49:02.456Z,23.70
2018-09-04T17:51:33.305Z,24.30
2018-09-04T17:54:03.062Z,25.20
2018-09-04T17:56:33.122Z,25.70
2018-09-04T17:59:02.708Z,25.40
2018-09-04T18:01:32.743Z,25.00
2018-09-04T18:04:02.517Z,23.40
2018-09-04T18:06:32.206Z,23.20
2018-09-04T18:09:02.000Z,22.10
2018-09-04T18:11:31.633Z,22.10
2018-09-04T18:14:01.040Z,22.20
2018-09-04T18:16:30.033Z,21.60
2018-09-04T18:18:59.109Z,21.90
2018-09-04T18:21:28.531Z,21.70
2018-09-04T18:23:58.025Z,22.80
2018-09-04T18:26:27.590Z,22.10
2018-09-04T18:28:56.936Z,23.30
2018-09-04T18:31:26.574Z,24.70
2018-09-04T18:33:55.920Z,24.40
2018-09-04T18:36:25.488Z,25.70
2018-09-04T18:38:55.237Z,26.30
2018-09-04T18:41:25.132Z,26.60
2018-09-04T18:43:55.060Z,26.40
2018-09-04T18:46:24.909Z,24.70
2018-09-04T18:48:56.306Z,25.60
2018-09-04T18:51:26.309Z,26.10
2018-09-04T18:53:56.126Z,26.20
2018-09-04T18:56:25.686Z,25.70
2018-09-04T18:58:55.231Z,25.60
2018-09-04T19:01:24.735Z,26.00
2018-09-04T19:03:53.963Z,26.20
2018-09-04T19:06:23.375Z,26.40
2018-09-04T19:08:53.161Z,26.50
2018-09-04T19:11:22.670Z,26.50
2018-09-04T19:13:52.264Z,26.40
2018-09-04T19:16:22.257Z,25.30
2018-09-04T19:18:51.719Z,26.00
2018-09-04T19:21:22.236Z,26.20
2018-09-04T19:23:52.248Z,26.40
2018-09-04T19:26:21.829Z,26.40
2018-09-04T19:28:52.167Z,26.40
2018-09-04T19:31:22.048Z,26.40
2018-09-04T19:33:51.775Z,26.40
2018-09-04T19:36:21.509Z,26.40
2018-09-04T19:38:51.398Z,26.40
2018-09-04T19:41:21.491Z,26.40
2018-09-04T19:43:51.030Z,26.40
2018-09-04T19:46:21.367Z,26.30
2018-09-04T19:48:51.093Z,26.30
2018-09-04T19:51:21.343Z,26.30
2018-09-04T19:53:51.406Z,26.10
2018-09-04T19:56:21.513Z,25.30
2018-09-04T19:58:51.356Z,25.80
2018-09-04T20:01:21.308Z,26.10
2018-09-04T20:03:51.504Z,26.20
2018-09-04T20:06:21.273Z,26.20
2018-09-04T20:08:51.461Z,26.20
2018-09-04T20:11:21.274Z,26.10
2018-09-04T20:13:51.617Z,25.70
2018-09-04T20:16:21.368Z,26.00
2018-09-04T20:18:51.168Z,26.10
2018-09-04T20:21:23.935Z,26.20
2018-09-04T20:23:53.685Z,26.10
2018-09-04T20:26:23.837Z,26.00
2018-09-04T20:28:53.750Z,26.20
2018-09-04T20:31:23.343Z,26.30
2018-09-04T20:33:53.203Z,26.20
2018-09-04T20:36:22.910Z,26.00
2018-09-04T20:38:52.474Z,25.70
2018-09-04T20:41:22.414Z,24.70
2018-09-04T20:43:52.646Z,25.30
2018-09-04T20:46:22.310Z,25.20
2018-09-04T20:48:52.508Z,25.00
2018-09-04T20:51:22.308Z,25.20
2018-09-04T20:53:52.284Z,25.30
2018-09-04T20:56:22.418Z,24.40
2018-09-04T20:59:02.324Z,24.00
2018-09-04T21:01:42.649Z,23.90
2018-09-04T21:04:23.265Z,24.10
2018-09-04T21:06:53.470Z,24.80
2018-09-04T21:09:33.836Z,24.50
2018-09-04T21:12:03.204Z,25.00
2018-09-04T21:14:32.238Z,25.20
2018-09-04T21:17:01.387Z,25.50
2018-09-04T21:19:31.073Z,24.50
2018-09-04T21:22:00.220Z,24.70
2018-09-04T21:24:29.984Z,24.30
2018-09-04T21:26:59.440Z,23.80
2018-09-04T21:29:28.815Z,23.90
2018-09-04T21:31:58.165Z,25.00
2018-09-04T21:34:27.858Z,24.80
2018-09-04T21:36:57.358Z,23.60
2018-09-04T21:39:27.188Z,25.00
2018-09-04T21:41:56.592Z,25.30
2018-09-04T21:44:26.210Z,25.40
2018-09-04T21:46:55.660Z,25.70
2018-09-04T21:49:25.509Z,25.50
2018-09-04T21:51:55.226Z,25.70
2018-09-04T21:54:25.467Z,25.70
2018-09-04T21:56:54.847Z,25.60
2018-09-04T21:59:24.329Z,25.60
2018-09-04T22:01:54.456Z,25.50
2018-09-04T22:04:24.421Z,25.60
2018-09-04T22:06:54.100Z,25.70
2018-09-04T22:09:23.487Z,24.50
2018-09-04T22:11:52.835Z,23.20
2018-09-04T22:14:22.250Z,23.60
2018-09-04T22:16:52.434Z,24.40
2018-09-04T22:19:21.911Z,24.40
2018-09-04T22:21:51.688Z,25.00
2018-09-04T22:24:21.815Z,25.20
2018-09-04T22:26:51.746Z,25.60
2018-09-04T22:29:21.684Z,25.60
2018-09-04T22:31:52.364Z,25.80
2018-09-04T22:34:22.161Z,25.70
2018-09-04T22:36:52.561Z,25.70
2018-09-04T22:39:22.427Z,25.50
2018-09-04T22:41:52.014Z,24.60
2018-09-04T22:44:21.940Z,24.10
2018-09-04T22:46:52.246Z,24.50
2018-09-04T22:49:21.876Z,24.20
2018-09-04T22:51:51.752Z,22.60
2018-09-04T22:54:21.784Z,23.60
2018-09-04T22:56:51.989Z,24.70
2018-09-04T22:59:21.816Z,25.00
2018-09-04T23:01:51.795Z,25.20
2018-09-04T23:04:21.385Z,25.30
2018-09-04T23:06:51.029Z,25.30
2018-09-04T23:09:21.622Z,25.30
2018-09-04T23:11:51.145Z,25.40
2018-09-04T23:14:20.973Z,25.30
2018-09-04T23:16:50.869Z,25.20
2018-09-04T23:19:21.144Z,25.10
2018-09-04T23:21:51.445Z,25.20
2018-09-04T23:24:20.994Z,25.30
2018-09-04T23:26:51.543Z,25.10
2018-09-04T23:29:21.743Z,25.20
2018-09-04T23:31:52.154Z,25.30
2018-09-04T23:34:22.180Z,25.30
2018-09-04T23:36:51.911Z,25.30
2018-09-04T23:39:22.198Z,25.30
2018-09-04T23:41:51.714Z,25.30
2018-09-04T23:44:21.778Z,25.30
2018-09-04T23:46:51.637Z,25.00
2018-09-04T23:49:21.469Z,25.10
2018-09-04T23:51:51.621Z,25.10
2018-09-04T23:54:21.567Z,25.20
2018-09-04T23:56:51.408Z,25.20
2018-09-04T23:59:21.321Z,25.20
